Time;durP1;ratioP1;P1;durP2;ratioP2;P2;SDS_P1;SDS_P2;PMS_P1;PMS_P2;Temp;Humidity;BMP_temperature;BMP_pressure;BME280_temperature;BME280_humidity;BME280_pressure;Samples;Min_cycle;Max_cycle;Signal;HPM_P1;HPM_P2
2022/04/02 00:00:53;;;;;;;15.95;8.75;;;;;;;0.13;97.99;101089.59;4986288;28;20042;-71
2022/04/02 00:03:19;;;;;;;19.63;8.90;;;;;;;0.07;98.00;101089.09;5000362;28;20022;-71
2022/04/02 00:05:45;;;;;;;14.85;8.48;;;;;;;0.07;97.96;101096.72;4990501;28;20030;-71
2022/04/02 00:08:11;;;;;;;15.15;8.43;;;;;;;0.06;97.03;101092.53;4988173;28;20046;-71
2022/04/02 00:10:37;;;;;;;18.85;8.43;;;;;;;0.03;97.56;101096.06;4975558;28;20072;-71
2022/04/02 00:13:02;;;;;;;16.63;8.93;;;;;;;0.02;97.42;101101.25;4978228;28;20019;-72
2022/04/02 00:15:28;;;;;;;19.58;8.68;;;;;;;0.01;97.42;101102.16;4989914;28;20034;-72
2022/04/02 00:17:53;;;;;;;14.98;7.95;;;;;;;0.03;97.65;101110.56;4976879;28;20057;-72
2022/04/02 00:20:19;;;;;;;18.90;9.07;;;;;;;0.09;97.62;101110.22;4992161;28;20496;-71
2022/04/02 00:25:29;;;;;;;14.85;7.65;;;;;;;0.12;96.63;101104.97;4988797;28;20117;-72
2022/04/02 00:27:55;;;;;;;17.00;7.50;;;;;;;0.17;96.36;101114.03;4989279;28;20411;-71
2022/04/02 00:30:21;;;;;;;12.63;6.85;;;;;;;0.11;96.48;101111.78;4972758;28;20030;-72
2022/04/02 00:32:47;;;;;;;15.93;6.97;;;;;;;0.15;96.38;101107.34;4989192;28;20018;-72
2022/04/02 00:35:13;;;;;;;13.10;7.32;;;;;;;0.10;96.48;101106.78;4976220;28;20037;-72
2022/04/02 00:37:38;;;;;;;17.20;6.70;;;;;;;0.16;96.43;101103.91;4971642;28;20033;-72
2022/04/02 00:40:05;;;;;;;11.73;6.22;;;;;;;0.13;95.40;101096.41;4985537;28;20042;-72
2022/04/02 00:42:30;;;;;;;13.68;7.03;;;;;;;0.18;96.08;101100.34;4989088;28;20022;-72
2022/04/02 00:44:56;;;;;;;16.40;6.18;;;;;;;0.23;95.84;101100.13;4976675;28;20113;-72
2022/04/02 00:47:22;;;;;;;12.63;6.20;;;;;;;0.14;95.31;101098.88;4988231;28;20049;-72
2022/04/02 00:49:47;;;;;;;17.17;6.45;;;;;;;0.08;95.73;101111.97;4975617;28;20116;-72
2022/04/02 00:52:13;;;;;;;10.57;6.15;;;;;;;0.16;95.60;101109.81;4972322;28;20100;-72
2022/04/02 00:54:40;;;;;;;13.63;6.60;;;;;;;0.13;95.71;101111.69;4956847;28;20068;-72
2022/04/02 00:57:06;;;;;;;17.20;5.88;;;;;;;0.20;95.68;101105.38;4973387;28;20092;-72
2022/04/02 00:59:31;;;;;;;13.15;5.80;;;;;;;0.14;94.82;101108.25;4975236;28;20042;-71
2022/04/02 01:01:57;;;;;;;9.07;6.13;;;;;;;0.06;95.44;101102.72;4986895;28;20038;-72
2022/04/02 01:04:23;;;;;;;13.18;6.25;;;;;;;0.03;95.75;101115.66;4985990;28;20503;-72
2022/04/02 01:06:50;;;;;;;10.75;6.38;;;;;;;0.05;95.55;101108.75;4972376;28;20033;-74
2022/04/02 01:09:19;;;;;;;13.82;6.00;;;;;;;0.09;95.39;101105.94;4990593;28;20355;-72
2022/04/02 01:11:51;;;;;;;12.00;6.50;;;;;;;0.17;95.72;101108.94;4970862;28;20030;-72
2022/04/02 01:14:16;;;;;;;11.00;5.93;;;;;;;0.08;94.66;101109.41;4986938;28;20557;-71
2022/04/02 01:16:45;;;;;;;13.48;5.75;;;;;;;0.13;94.34;101111.69;4966434;28;20025;-73
2022/04/02 01:19:18;;;;;;;11.10;5.05;;;;;;;0.11;94.33;101109.22;5002100;28;20062;-72
2022/04/02 01:21:45;;;;;;;11.10;5.80;;;;;;;0.12;94.09;101097.31;4970645;28;20822;-73
2022/04/02 01:24:40;;;;;;;10.00;5.47;;;;;;;0.06;94.42;101103.56;4980773;28;20461;-72
2022/04/02 01:27:06;;;;;;;14.70;4.93;;;;;;;0.09;93.53;101108.47;4956064;28;20484;-71
2022/04/02 01:29:34;;;;;;;12.80;5.45;;;;;;;0.15;93.55;101108.19;4957996;28;20034;-73
2022/04/02 01:32:03;;;;;;;12.57;5.47;;;;;;;0.07;93.13;101104.38;4973222;28;20463;-73
2022/04/02 01:34:32;;;;;;;11.93;5.38;;;;;;;0.02;93.67;101108.88;4952761;28;20019;-72
2022/04/02 01:37:06;;;;;;;12.82;5.38;;;;;;;-0.03;93.58;101107.41;4987072;28;20034;-72
2022/04/02 01:39:38;;;;;;;10.45;5.20;;;;;;;-0.07;94.25;101110.22;4978170;28;20030;-72
2022/04/02 01:42:06;;;;;;;11.00;5.05;;;;;;;0.00;93.23;101109.00;4953015;28;20085;-71
2022/04/02 01:44:37;;;;;;;9.52;5.20;;;;;;;-0.02;94.13;101108.22;4961021;28;20258;-71
2022/04/02 01:47:03;;;;;;;12.80;5.20;;;;;;;0.00;94.17;101106.44;4990245;28;20038;-72
2022/04/02 01:49:30;;;;;;;14.60;5.28;;;;;;;-0.01;94.37;101114.97;4988231;28;20030;-72
2022/04/02 01:51:59;;;;;;;13.88;5.38;;;;;;;0.04;94.05;101104.53;4969038;28;20069;-72
2022/04/02 01:54:25;;;;;;;10.52;5.60;;;;;;;0.09;92.85;101115.31;4970742;28;20064;-72
2022/04/02 01:57:01;;;;;;;11.57;5.35;;;;;;;0.02;93.22;101107.19;4984995;28;20102;-72
2022/04/02 01:59:27;;;;;;;15.13;5.28;;;;;;;0.07;92.97;101107.75;4973311;28;20504;-72
2022/04/02 02:01:53;;;;;;;9.82;4.80;;;;;;;0.07;92.71;101107.75;4973500;28;20038;-73
2022/04/02 02:04:18;;;;;;;10.60;4.47;;;;;;;0.08;92.12;101117.06;4988915;28;20030;-72
2022/04/02 02:06:45;;;;;;;9.63;5.05;;;;;;;0.05;92.60;101116.38;4990452;28;20026;-73
2022/04/02 02:09:14;;;;;;;10.38;4.38;;;;;;;0.12;93.17;101115.19;4988053;28;20022;-73
2022/04/02 02:11:56;;;;;;;7.63;3.72;;;;;;;0.12;91.79;101115.19;4991043;28;20388;-72
2022/04/02 02:14:42;;;;;;;11.38;4.30;;;;;;;0.15;91.91;101107.34;4986649;28;20042;-72
2022/04/02 02:17:15;;;;;;;10.35;4.30;;;;;;;0.12;91.43;101116.00;4989969;28;20038;-73
2022/04/02 02:19:43;;;;;;;9.73;3.97;;;;;;;0.04;90.54;101120.69;4974732;28;20040;-72
2022/04/02 02:22:09;;;;;;;11.80;4.18;;;;;;;0.01;91.04;101110.63;4974112;28;20030;-72
2022/04/02 02:24:34;;;;;;;9.15;4.10;;;;;;;0.02;91.26;101122.50;4987050;28;20085;-72
2022/04/02 02:27:01;;;;;;;11.27;4.18;;;;;;;0.06;90.79;101116.31;4964152;28;20029;-72
2022/04/02 02:29:31;;;;;;;10.00;3.97;;;;;;;-0.02;90.51;101113.31;4966694;28;20491;-72
2022/04/02 02:32:01;;;;;;;15.32;4.80;;;;;;;0.01;90.88;101120.81;4968787;28;20030;-72
2022/04/02 02:37:11;;;;;;;17.02;3.83;;;;;;;0.03;90.81;101118.19;4971420;28;20033;-73
2022/04/02 02:39:45;;;;;;;7.25;4.03;;;;;;;0.10;90.47;101117.81;4969886;28;20392;-72
2022/04/02 02:42:17;;;;;;;8.10;3.80;;;;;;;0.21;89.11;101124.91;4970602;28;20042;-72
2022/04/02 02:44:50;;;;;;;10.65;3.70;;;;;;;0.18;88.97;101128.41;4981982;28;20520;-71
2022/04/02 02:47:19;;;;;;;7.25;3.55;;;;;;;0.13;88.28;101120.19;4969860;28;20034;-72
2022/04/02 02:49:46;;;;;;;5.82;3.10;;;;;;;0.11;88.24;101116.88;4973421;28;20028;-72
2022/04/02 02:52:17;;;;;;;6.80;3.65;;;;;;;0.11;87.22;101121.97;4989774;28;20506;-72
2022/04/02 02:54:44;;;;;;;7.22;3.42;;;;;;;0.06;87.35;101116.31;4975838;28;20018;-73
2022/04/02 02:57:09;;;;;;;8.07;3.70;;;;;;;0.18;86.87;101125.03;4972955;28;20676;-72
2022/04/02 02:59:36;;;;;;;10.50;3.45;;;;;;;0.09;86.88;101120.41;4958588;28;20029;-73
2022/04/02 03:02:03;;;;;;;10.85;3.75;;;;;;;0.12;86.88;101120.28;4974418;28;20026;-72
2022/04/02 03:04:30;;;;;;;12.40;3.55;;;;;;;0.13;86.56;101124.44;4969822;28;20041;-71
2022/04/02 03:07:01;;;;;;;11.98;3.70;;;;;;;0.11;85.54;101128.81;4977599;28;20026;-73
2022/04/02 03:09:30;;;;;;;5.90;3.33;;;;;;;0.08;85.83;101132.34;4962621;28;20483;-72
2022/04/02 03:11:56;;;;;;;11.68;3.30;;;;;;;0.02;85.91;101122.50;4979336;28;20041;-73
2022/04/02 03:14:22;;;;;;;12.48;3.63;;;;;;;0.05;86.68;101124.84;4991686;28;20093;-72
2022/04/02 03:16:47;;;;;;;12.02;3.63;;;;;;;0.13;85.80;101132.94;4981238;28;20411;-73
2022/04/02 03:19:16;;;;;;;8.98;3.65;;;;;;;0.11;85.93;101139.00;4975558;28;20451;-72
2022/04/02 03:21:42;;;;;;;9.52;3.50;;;;;;;0.11;85.01;101137.28;4984249;28;20034;-72
2022/04/02 03:24:08;;;;;;;7.38;3.38;;;;;;;0.19;84.81;101134.34;4970045;28;20030;-73
2022/04/02 03:26:36;;;;;;;6.45;2.78;;;;;;;0.09;84.81;101135.72;4963177;28;20037;-72
2022/04/02 03:29:09;;;;;;;9.30;3.42;;;;;;;0.16;84.89;101148.06;4975044;28;20085;-73
2022/04/02 03:31:36;;;;;;;6.65;3.22;;;;;;;0.17;84.88;101136.97;4963409;28;20034;-72
2022/04/02 03:34:02;;;;;;;7.15;2.85;;;;;;;0.14;83.46;101143.97;4984656;28;20018;-74
2022/04/02 03:36:28;;;;;;;9.35;4.30;;;;;;;0.13;83.42;101143.16;4989153;28;20097;-74
2022/04/02 03:38:55;;;;;;;5.53;3.03;;;;;;;0.08;83.37;101139.19;4970572;28;20038;-74
2022/04/02 03:41:22;;;;;;;7.60;3.17;;;;;;;0.04;83.65;101143.63;4969510;28;20034;-72
2022/04/02 03:43:51;;;;;;;7.30;3.22;;;;;;;0.15;83.47;101143.91;4968598;28;20492;-72
2022/04/02 03:49:05;;;;;;;5.30;2.95;;;;;;;0.05;82.97;101147.00;4964140;28;20113;-72
2022/04/02 03:51:31;;;;;;;7.15;3.05;;;;;;;0.09;81.91;101153.56;4987921;28;20026;-72
2022/04/02 03:53:59;;;;;;;6.90;3.30;;;;;;;0.15;81.67;101154.09;4966771;28;20093;-73
2022/04/02 03:56:27;;;;;;;13.15;3.20;;;;;;;0.10;80.90;101150.94;4974322;28;20038;-72
2022/04/02 03:58:58;;;;;;;5.72;3.00;;;;;;;0.25;78.67;101156.16;4970882;28;20447;-72
2022/04/02 04:01:25;;;;;;;5.18;3.00;;;;;;;0.19;78.88;101149.66;4975996;28;20030;-73
2022/04/02 04:03:51;;;;;;;8.55;2.83;;;;;;;0.15;79.21;101151.53;4968589;28;20022;-74
2022/04/02 04:06:18;;;;;;;11.52;2.92;;;;;;;0.13;79.06;101158.47;4986857;28;20443;-73
2022/04/02 04:08:44;;;;;;;7.13;3.38;;;;;;;0.27;77.49;101159.47;4975331;28;20085;-73
2022/04/02 04:11:14;;;;;;;9.52;2.88;;;;;;;0.21;77.85;101159.75;4986914;28;20044;-72
2022/04/02 04:13:41;;;;;;;9.00;2.67;;;;;;;0.29;77.55;101155.91;4960673;28;20030;-72
2022/04/02 04:16:07;;;;;;;5.13;2.20;;;;;;;0.28;78.62;101159.34;4971404;28;20031;-74
2022/04/02 04:18:34;;;;;;;5.05;2.30;;;;;;;0.23;77.47;101163.06;4992565;28;20040;-73
2022/04/02 04:21:00;;;;;;;6.88;2.60;;;;;;;0.19;76.75;101164.97;4985948;28;20034;-72
2022/04/02 04:23:29;;;;;;;6.35;3.20;;;;;;;0.25;77.33;101163.81;4993172;28;20035;-72
2022/04/02 04:25:58;;;;;;;8.25;2.50;;;;;;;0.23;76.76;101161.34;4977253;28;20122;-72
2022/04/02 04:28:25;;;;;;;4.22;2.08;;;;;;;0.23;77.01;101170.69;4960578;28;20031;-73
2022/04/02 04:30:55;;;;;;;12.80;3.10;;;;;;;0.25;77.14;101171.47;4976162;28;20038;-73
2022/04/02 04:33:20;;;;;;;6.80;2.55;;;;;;;0.20;76.98;101166.59;4972758;28;20034;-72
2022/04/02 04:35:46;;;;;;;5.55;2.42;;;;;;;0.34;76.40;101176.91;4969988;28;20049;-73
2022/04/02 04:38:12;;;;;;;5.90;2.47;;;;;;;0.37;74.68;101171.63;4991943;28;20029;-73
2022/04/02 04:40:38;;;;;;;9.55;2.60;;;;;;;0.34;75.33;101179.47;4977043;28;20053;-72
2022/04/02 04:43:05;;;;;;;7.88;2.58;;;;;;;0.29;74.82;101191.63;4975279;28;20042;-70
2022/04/02 04:45:35;;;;;;;6.63;2.80;;;;;;;0.31;74.57;101187.25;4988333;28;20686;-70
2022/04/02 04:48:03;;;;;;;6.90;2.92;;;;;;;0.38;73.71;101192.88;4978578;28;20483;-70
2022/04/02 04:50:34;;;;;;;9.98;2.80;;;;;;;0.36;73.03;101200.63;4988753;28;20411;-70
2022/04/02 04:53:00;;;;;;;7.50;2.88;;;;;;;0.35;72.85;101193.03;4993886;28;20019;-70
2022/04/02 04:55:28;;;;;;;5.50;2.75;;;;;;;0.31;73.11;101199.22;4957502;28;20046;-70
2022/04/02 04:57:54;;;;;;;5.07;2.67;;;;;;;0.25;73.51;101200.34;4969555;28;20030;-70
2022/04/02 05:00:24;;;;;;;5.95;2.72;;;;;;;0.30;74.39;101200.94;4967686;28;20121;-70
2022/04/02 05:02:50;;;;;;;5.60;2.67;;;;;;;0.30;73.76;101206.03;4965507;28;20133;-70
2022/04/02 05:05:23;;;;;;;7.05;3.20;;;;;;;0.34;72.96;101209.22;4990727;28;20270;-70
2022/04/02 05:07:49;;;;;;;6.68;2.55;;;;;;;0.32;74.77;101201.69;4993239;28;20116;-69
2022/04/02 05:10:16;;;;;;;5.45;2.38;;;;;;;0.31;74.59;101209.41;4985787;28;20064;-70
2022/04/02 05:12:43;;;;;;;4.50;2.53;;;;;;;0.31;72.85;101211.97;4973054;28;20031;-70
2022/04/02 05:15:11;;;;;;;6.55;2.45;;;;;;;0.37;72.30;101219.28;4969802;28;20057;-70
2022/04/02 05:17:39;;;;;;;7.85;2.53;;;;;;;0.32;71.66;101211.03;4991501;28;20026;-70
2022/04/02 05:20:08;;;;;;;4.15;2.47;;;;;;;0.35;71.02;101221.91;4954987;28;20109;-70
2022/04/02 05:22:36;;;;;;;6.00;2.20;;;;;;;0.36;72.11;101225.31;4974495;28;20030;-69
2022/04/02 05:25:03;;;;;;;7.72;2.47;;;;;;;0.27;73.00;101224.06;4973269;28;20029;-70
2022/04/02 05:27:28;;;;;;;7.97;3.03;;;;;;;0.26;74.05;101214.75;4986298;28;20483;-70
2022/04/02 05:29:54;;;;;;;6.35;2.90;;;;;;;0.25;73.18;101227.59;4981998;28;20042;-70
2022/04/02 05:32:20;;;;;;;5.90;2.72;;;;;;;0.33;73.65;101223.72;4969606;28;20116;-70
2022/04/02 05:34:45;;;;;;;4.93;2.22;;;;;;;0.36;72.61;101235.53;4972484;28;20077;-71
2022/04/02 05:37:11;;;;;;;4.68;2.33;;;;;;;0.31;72.31;101234.94;4984897;28;20392;-69
2022/04/02 05:39:36;;;;;;;8.63;3.00;;;;;;;0.34;72.43;101239.84;5001354;28;20046;-71
2022/04/02 05:42:05;;;;;;;6.07;3.08;;;;;;;0.31;72.69;101251.03;4956396;28;20434;-69
2022/04/02 05:44:31;;;;;;;5.65;2.38;;;;;;;0.39;71.62;101245.56;4988151;28;20556;-70
2022/04/02 05:46:57;;;;;;;7.97;2.70;;;;;;;0.41;71.94;101248.84;4978944;28;20034;-70
2022/04/02 05:49:22;;;;;;;4.72;2.20;;;;;;;0.39;72.69;101258.31;4983386;28;20567;-70
2022/04/02 05:51:48;;;;;;;7.60;3.15;;;;;;;0.42;73.65;101263.25;4992526;28;20037;-71
2022/04/02 05:54:14;;;;;;;6.88;3.20;;;;;;;0.37;73.02;101267.78;4987807;28;20472;-70
2022/04/02 05:56:42;;;;;;;7.57;3.30;;;;;;;0.39;72.66;101268.50;4989730;28;20070;-70
2022/04/02 05:59:08;;;;;;;7.70;2.92;;;;;;;0.46;72.11;101272.41;4954370;28;20116;-70
2022/04/02 06:01:34;;;;;;;9.25;2.97;;;;;;;0.33;73.14;101276.50;4989751;28;20034;-70
2022/04/02 06:04:00;;;;;;;9.73;2.83;;;;;;;0.31;73.86;101279.13;4968406;28;20043;-70
2022/04/02 06:06:26;;;;;;;7.20;2.85;;;;;;;0.30;75.14;101280.03;4985273;28;20057;-71
2022/04/02 06:08:51;;;;;;;7.53;2.88;;;;;;;0.37;73.59;101283.91;4989640;28;20037;-70
2022/04/02 06:11:17;;;;;;;7.82;3.03;;;;;;;0.42;74.31;101290.50;4985248;28;20415;-70
2022/04/02 06:13:42;;;;;;;10.38;3.80;;;;;;;0.50;72.77;101293.50;4992350;28;20053;-70
2022/04/02 06:16:08;;;;;;;6.95;3.00;;;;;;;0.45;73.99;101291.16;4984236;28;20031;-70
2022/04/02 06:18:35;;;;;;;6.57;3.00;;;;;;;0.54;72.06;101290.69;4987433;28;20582;-70
2022/04/02 06:21:03;;;;;;;5.78;2.55;;;;;;;0.58;71.06;101283.69;4974288;28;20029;-70
2022/04/02 06:23:29;;;;;;;7.10;2.33;;;;;;;0.55;71.40;101288.97;4992703;28;20052;-70
2022/04/02 06:25:56;;;;;;;7.90;3.17;;;;;;;0.54;71.78;101297.53;4973496;28;20038;-70
2022/04/02 06:28:21;;;;;;;5.80;2.85;;;;;;;0.53;72.26;101298.44;4986495;28;20685;-70
2022/04/02 06:30:47;;;;;;;8.32;3.38;;;;;;;0.56;73.38;101300.81;4987371;28;20491;-70
2022/04/02 06:33:12;;;;;;;7.85;2.67;;;;;;;0.64;72.47;101308.09;4970949;28;20030;-70
2022/04/02 06:35:38;;;;;;;8.48;3.00;;;;;;;0.64;72.02;101308.94;4980291;28;20041;-70
2022/04/02 06:38:03;;;;;;;9.60;3.00;;;;;;;0.72;71.46;101308.53;4989495;28;20494;-70
2022/04/02 06:40:29;;;;;;;6.32;2.65;;;;;;;0.72;70.57;101304.25;4988762;28;20042;-70
2022/04/02 06:42:58;;;;;;;5.05;2.63;;;;;;;0.71;71.97;101309.41;4972603;28;20531;-70
2022/04/02 06:45:42;;;;;;;5.50;2.78;;;;;;;0.78;72.14;101313.31;4973578;28;20034;-71
2022/04/02 06:48:08;;;;;;;33.05;10.93;;;;;;;0.85;72.02;101312.09;4969733;28;20462;-70
2022/04/02 06:50:34;;;;;;;9.57;3.13;;;;;;;0.85;72.06;101314.63;4987210;28;20197;-71
2022/04/02 06:52:59;;;;;;;8.10;2.90;;;;;;;0.91;71.99;101319.41;4987397;28;20029;-71
2022/04/02 06:55:25;;;;;;;6.75;2.70;;;;;;;0.94;71.78;101318.41;4986753;28;20213;-70
2022/04/02 06:57:54;;;;;;;8.27;3.65;;;;;;;0.99;70.38;101326.69;4973439;28;20108;-71
2022/04/02 07:00:21;;;;;;;4.47;2.88;;;;;;;1.02;69.14;101336.75;4987296;28;20088;-71
2022/04/02 07:02:46;;;;;;;7.88;2.55;;;;;;;1.00;69.81;101332.59;4987654;28;20088;-71
2022/04/02 07:05:12;;;;;;;6.45;2.97;;;;;;;1.00;69.71;101345.38;4982343;28;20034;-71
2022/04/02 07:07:37;;;;;;;6.25;3.00;;;;;;;1.11;70.17;101333.69;4989028;28;20033;-71
2022/04/02 07:10:04;;;;;;;6.35;3.15;;;;;;;1.08;69.46;101344.06;4992682;28;20037;-71
2022/04/02 07:12:31;;;;;;;5.50;2.75;;;;;;;1.20;68.89;101344.31;4988068;28;20037;-71
2022/04/02 07:14:56;;;;;;;8.50;2.90;;;;;;;1.27;68.86;101351.56;4992299;28;20030;-71
2022/04/02 07:17:22;;;;;;;7.85;2.90;;;;;;;1.24;67.93;101348.34;4973593;28;20042;-71
2022/04/02 07:19:49;;;;;;;4.10;2.53;;;;;;;1.27;67.68;101351.56;4976463;28;20038;-70
2022/04/02 07:22:17;;;;;;;6.65;2.72;;;;;;;1.45;68.58;101354.88;4985184;28;20113;-71
2022/04/02 07:24:44;;;;;;;9.73;2.90;;;;;;;1.43;68.32;101360.97;4973418;28;20061;-71
2022/04/02 07:27:09;;;;;;;6.07;2.75;;;;;;;1.48;67.12;101359.00;4992124;28;20026;-71
2022/04/02 07:29:35;;;;;;;9.18;3.10;;;;;;;1.50;66.87;101360.53;4974607;28;20523;-71
2022/04/02 07:32:01;;;;;;;7.05;2.65;;;;;;;1.63;66.28;101368.38;4990974;28;20045;-71
2022/04/02 07:34:27;;;;;;;5.18;2.47;;;;;;;1.60;66.46;101371.13;4972392;28;20081;-71
2022/04/02 07:37:01;;;;;;;8.95;2.92;;;;;;;1.63;67.09;101365.00;4992773;28;20399;-71
2022/04/02 07:39:39;;;;;;;15.73;9.02;;;;;;;1.68;67.22;101375.81;4984924;28;20117;-71
2022/04/02 07:42:14;;;;;;;9.13;4.15;;;;;;;1.66;65.84;101377.63;4985259;28;20057;-70
2022/04/02 07:44:52;;;;;;;15.85;7.10;;;;;;;1.77;67.31;101389.81;4981494;28;20522;-71
2022/04/02 07:47:24;;;;;;;19.48;9.48;;;;;;;1.80;65.67;101375.13;4986992;28;20066;-71
2022/04/02 07:49:54;;;;;;;13.85;4.95;;;;;;;1.98;66.82;101383.50;4976726;28;20320;-71
2022/04/02 07:52:23;;;;;;;8.55;4.28;;;;;;;1.94;65.35;101389.69;4991312;28;20037;-71
2022/04/02 07:54:57;;;;;;;10.40;4.63;;;;;;;1.99;65.64;101399.69;4974873;28;20041;-71
2022/04/02 07:57:48;;;;;;;5.85;3.58;;;;;;;2.03;65.93;101386.63;4991289;28;20041;-71
2022/04/02 08:00:18;;;;;;;8.63;2.95;;;;;;;2.11;64.91;101398.97;4966312;28;20523;-70
2022/04/02 08:02:45;;;;;;;8.57;3.22;;;;;;;2.17;64.59;101398.66;4985679;28;20122;-71
2022/04/02 08:05:16;;;;;;;6.65;3.70;;;;;;;2.17;64.57;101395.25;4976961;28;20293;-70
2022/04/02 08:07:44;;;;;;;7.32;3.08;;;;;;;2.16;65.55;101396.19;4994308;28;20114;-71
2022/04/02 08:10:13;;;;;;;11.27;3.35;;;;;;;2.25;65.11;101411.00;4981431;28;20411;-72
2022/04/02 08:12:46;;;;;;;6.40;3.28;;;;;;;2.22;63.39;101406.06;4986296;28;20026;-71
2022/04/02 08:15:18;;;;;;;7.70;2.88;;;;;;;2.35;63.56;101409.56;4987197;28;20030;-70
2022/04/02 08:17:45;;;;;;;9.40;3.03;;;;;;;2.31;63.02;101402.97;4970343;28;20030;-71
2022/04/02 08:20:15;;;;;;;8.30;3.10;;;;;;;2.36;63.41;101403.53;4974895;28;20451;-71
2022/04/02 08:22:42;;;;;;;7.45;2.78;;;;;;;2.53;64.00;101411.06;4997040;28;20117;-71
2022/04/02 08:25:08;;;;;;;10.05;3.10;;;;;;;2.62;64.20;101417.41;4992104;28;20436;-70
2022/04/02 08:27:38;;;;;;;8.32;2.97;;;;;;;2.58;62.33;101407.41;4987704;28;20504;-71
2022/04/02 08:30:10;;;;;;;13.45;3.67;;;;;;;2.63;63.31;101411.34;4992170;28;20034;-71
2022/04/02 08:32:35;;;;;;;16.90;7.15;;;;;;;2.70;63.58;101406.72;4989019;28;20403;-71
2022/04/02 08:35:09;;;;;;;7.78;3.50;;;;;;;2.71;62.99;101418.59;4975925;28;20109;-71
2022/04/02 08:37:51;;;;;;;12.52;5.85;;;;;;;2.73;63.14;101416.75;4981838;28;20366;-71
2022/04/02 08:40:44;;;;;;;10.35;6.18;;;;;;;2.90;63.83;101424.28;4984936;28;20444;-71
2022/04/02 08:43:44;;;;;;;7.68;2.97;;;;;;;2.82;62.52;101426.47;4981337;28;20081;-71
2022/04/02 08:47:00;;;;;;;16.02;3.80;;;;;;;2.86;61.45;101427.97;4965479;28;20330;-71
2022/04/02 08:49:49;;;;;;;8.05;3.50;;;;;;;3.01;60.79;101430.50;4993262;28;20034;-71
2022/04/02 08:52:14;;;;;;;8.80;3.47;;;;;;;2.84;60.59;101428.94;4990734;28;20042;-70
2022/04/02 08:55:13;;;;;;;7.63;3.05;;;;;;;2.94;61.52;101435.19;4989098;28;20125;-71
2022/04/02 08:57:42;;;;;;;7.63;3.25;;;;;;;2.84;60.64;101434.06;4975002;28;20042;-71
2022/04/02 09:00:12;;;;;;;6.60;3.30;;;;;;;3.09;61.43;101439.41;4989680;28;20093;-70
2022/04/02 09:03:01;;;;;;;8.52;4.18;;;;;;;3.19;61.88;101439.66;4977180;28;20136;-71
2022/04/02 09:06:22;;;;;;;6.78;3.17;;;;;;;3.21;60.01;101447.25;4991886;28;20042;-71
2022/04/02 09:09:14;;;;;;;7.85;3.78;;;;;;;3.26;60.91;101451.19;4928998;29;20032;-71
2022/04/02 09:12:20;;;;;;;6.65;2.75;;;;;;;3.08;59.90;101454.84;4987401;28;20049;-70
2022/04/02 09:15:12;;;;;;;4.47;2.97;;;;;;;3.09;59.69;101452.22;4989813;28;20037;-71
2022/04/02 09:17:53;;;;;;;8.68;3.25;;;;;;;3.11;59.00;101452.94;4988661;28;20508;-71
2022/04/02 09:20:21;;;;;;;7.57;3.20;;;;;;;3.03;59.31;101461.97;4987923;28;20324;-71
2022/04/02 09:23:23;;;;;;;9.57;5.15;;;;;;;3.28;59.23;101461.38;4979297;28;20045;-71
2022/04/02 09:26:27;;;;;;;5.43;3.40;;;;;;;3.32;60.68;101462.81;4972913;28;20468;-71
2022/04/02 09:29:11;;;;;;;7.47;4.50;;;;;;;3.22;58.74;101472.81;4984907;28;20050;-71
2022/04/02 09:31:56;;;;;;;12.35;3.55;;;;;;;3.16;59.35;101470.59;4993992;28;20030;-71
2022/04/02 09:34:55;;;;;;;8.75;3.60;;;;;;;3.25;58.68;101462.34;4987356;28;20034;-70
2022/04/02 09:37:33;;;;;;;7.47;3.25;;;;;;;3.04;57.88;101466.22;4973063;28;20038;-71
2022/04/02 09:40:09;;;;;;;8.43;3.92;;;;;;;3.03;59.02;101472.25;4986753;28;20052;-70
2022/04/02 09:42:47;;;;;;;9.52;4.28;;;;;;;2.97;61.37;101482.84;4974231;28;20062;-71
2022/04/02 09:45:22;;;;;;;9.25;4.05;;;;;;;2.89;60.75;101483.31;4972994;28;20477;-70
2022/04/02 09:47:48;;;;;;;11.60;4.55;;;;;;;2.91;62.56;101489.16;4991349;28;20057;-71
2022/04/02 09:50:16;;;;;;;7.57;4.53;;;;;;;3.01;63.27;101477.44;4984129;28;20088;-71
2022/04/02 09:52:44;;;;;;;9.73;5.03;;;;;;;3.14;62.26;101487.81;4990858;28;20096;-71
2022/04/02 09:55:15;;;;;;;10.75;4.90;;;;;;;3.35;62.58;101479.75;4992398;28;20037;-71
2022/04/02 09:58:14;;;;;;;9.93;4.75;;;;;;;3.49;60.62;101492.56;4993270;28;20057;-71
2022/04/02 10:01:03;;;;;;;9.15;4.47;;;;;;;3.62;61.67;101496.03;4991933;28;20244;-71
2022/04/02 10:03:58;;;;;;;7.90;4.47;;;;;;;3.49;60.91;101500.25;4983965;28;20432;-71
2022/04/02 10:06:38;;;;;;;11.48;5.13;;;;;;;3.54;62.00;101505.09;4987948;28;20128;-71
2022/04/02 10:09:08;;;;;;;7.63;4.97;;;;;;;3.43;60.58;101500.66;4991209;28;20116;-70
2022/04/02 10:11:39;;;;;;;8.20;4.90;;;;;;;3.53;60.71;101501.72;4972785;28;20034;-71
2022/04/02 10:14:06;;;;;;;7.55;4.63;;;;;;;3.96;63.57;101498.28;4981618;28;20034;-71
2022/04/02 10:16:31;;;;;;;13.07;5.63;;;;;;;4.15;61.49;101500.50;4984461;28;20061;-71
2022/04/02 10:19:00;;;;;;;9.35;5.35;;;;;;;4.04;59.56;101496.84;4986406;28;20038;-71
2022/04/02 10:21:27;;;;;;;12.32;5.35;;;;;;;3.94;60.07;101497.50;4972782;28;20041;-70
2022/04/02 10:24:02;;;;;;;7.85;4.43;;;;;;;3.65;59.58;101505.28;4988842;28;20034;-71
2022/04/02 10:26:36;;;;;;;8.43;4.90;;;;;;;3.86;60.58;101505.69;4969732;28;20046;-70
2022/04/02 10:29:10;;;;;;;10.98;4.75;;;;;;;3.97;61.93;101489.63;4991215;28;20034;-70
2022/04/02 10:31:39;;;;;;;9.20;6.50;;;;;;;4.07;62.07;101500.97;4988693;28;20045;-71
2022/04/02 10:34:12;;;;;;;7.45;4.43;;;;;;;3.85;60.93;101502.31;4987608;28;20029;-71
2022/04/02 10:36:48;;;;;;;8.10;4.82;;;;;;;3.75;60.53;101508.94;4974773;28;20030;-71
2022/04/02 10:39:15;;;;;;;7.57;4.97;;;;;;;3.62;60.87;101514.00;4986285;28;20404;-70
2022/04/02 10:41:44;;;;;;;8.48;3.72;;;;;;;3.61;61.04;101507.19;4957950;28;20038;-71
2022/04/02 10:44:25;;;;;;;9.70;4.45;;;;;;;3.45;59.69;101516.75;4957843;28;20034;-70
2022/04/02 10:46:55;;;;;;;10.43;5.03;;;;;;;3.59;61.16;101511.59;4957201;28;20023;-70
2022/04/02 10:49:28;;;;;;;9.45;5.28;;;;;;;3.68;61.47;101508.47;4987838;28;20053;-71
2022/04/02 10:51:55;;;;;;;11.43;5.78;;;;;;;3.66;63.68;101518.00;4990888;28;20045;-70
2022/04/02 10:54:27;;;;;;;11.90;6.32;;;;;;;3.63;64.93;101515.63;4989695;28;20030;-71
2022/04/02 10:56:54;;;;;;;16.63;8.60;;;;;;;3.77;65.62;101519.94;4991832;28;20092;-71
2022/04/02 10:59:20;;;;;;;20.83;10.40;;;;;;;3.60;64.79;101510.69;4987060;28;20033;-70
2022/04/02 11:01:52;;;;;;;14.00;7.75;;;;;;;3.71;64.29;101517.72;4989209;28;20058;-71
2022/04/02 11:04:52;;;;;;;29.77;16.60;;;;;;;3.94;63.86;101516.31;4973290;28;20053;-70
2022/04/02 11:07:29;;;;;;;12.23;5.82;;;;;;;3.95;61.92;101515.38;4954570;28;20041;-70
2022/04/02 11:09:57;;;;;;;10.07;5.07;;;;;;;3.83;62.95;101521.28;4974891;28;20197;-71
2022/04/02 11:12:30;;;;;;;11.02;5.97;;;;;;;3.87;63.68;101526.13;4996630;28;20076;-71
2022/04/02 11:15:30;;;;;;;10.88;5.38;;;;;;;3.90;64.08;101525.94;4992964;28;20037;-70
2022/04/02 11:17:58;;;;;;;14.70;5.50;;;;;;;3.72;64.64;101537.34;4995523;28;20030;-71
2022/04/02 11:20:31;;;;;;;8.95;5.28;;;;;;;3.76;65.58;101537.97;4995459;28;20150;-70
2022/04/02 11:23:11;;;;;;;11.13;5.57;;;;;;;3.95;65.93;101540.22;4992914;28;20119;-71
2022/04/02 11:25:43;;;;;;;10.48;5.32;;;;;;;4.04;66.49;101537.91;5004723;28;20042;-71
2022/04/02 11:28:21;;;;;;;9.48;5.75;;;;;;;3.85;66.36;101542.53;4980565;28;20388;-70
2022/04/02 11:30:51;;;;;;;10.32;6.38;;;;;;;3.63;66.96;101545.59;4989601;28;20085;-71
2022/04/02 11:33:23;;;;;;;9.77;6.30;;;;;;;3.23;70.09;101558.22;4981586;28;20076;-70
2022/04/02 11:35:56;;;;;;;13.48;7.00;;;;;;;3.27;72.77;101550.25;4991610;28;20393;-71
2022/04/02 11:38:45;;;;;;;11.57;7.10;;;;;;;3.60;72.96;101540.63;4991700;28;20121;-70
2022/04/02 11:41:31;;;;;;;13.20;5.95;;;;;;;3.72;70.71;101545.03;4990897;28;20034;-70
2022/04/02 11:44:11;;;;;;;9.50;6.10;;;;;;;3.94;70.73;101541.13;4979444;28;20038;-70
2022/04/02 11:46:51;;;;;;;20.10;10.50;;;;;;;3.81;69.29;101546.22;4972305;28;20080;-71
2022/04/02 11:49:27;;;;;;;16.35;8.18;;;;;;;3.74;69.56;101557.78;5002100;28;20451;-71
2022/04/02 11:52:05;;;;;;;17.63;9.25;;;;;;;3.61;67.70;101555.13;4990506;28;20037;-70
2022/04/02 11:54:31;;;;;;;26.67;13.52;;;;;;;3.38;71.09;101564.19;4975530;28;20033;-71